sensor_id;sensor_type;location;lat;lon;timestamp;temperature;humidity
22635;DHT22;11484;50.858;4.384;2024-03-08T00:00:15;6.30;99.90
22635;DHT22;11484;50.858;4.384;2024-03-08T00:02:47;6.30;99.90
22635;DHT22;11484;50.858;4.384;2024-03-08T00:05:14;6.20;99.90
22635;DHT22;11484;50.858;4.384;2024-03-08T00:07:41;6.20;99.90
22635;DHT22;11484;50.858;4.384;2024-03-08T00:10:09;6.10;99.90
22635;DHT22;11484;50.858;4.384;2024-03-08T00:12:42;6.00;99.90
22635;DHT22;11484;50.858;4.384;2024-03-08T00:15:08;5.90;99.90
22635;DHT22;11484;50.858;4.384;2024-03-08T00:17:35;5.80;99.90
22635;DHT22;11484;50.858;4.384;2024-03-08T00:20:00;5.80;99.90
22635;DHT22;11484;50.858;4.384;2024-03-08T00:22:26;5.80;99.90
22635;DHT22;11484;50.858;4.384;2024-03-08T00:24:52;5.80;99.90
22635;DHT22;11484;50.858;4.384;2024-03-08T00:27:17;5.70;99.90
22635;DHT22;11484;50.858;4.384;2024-03-08T00:29:46;5.70;99.90
22635;DHT22;11484;50.858;4.384;2024-03-08T00:32:12;5.70;99.90
22635;DHT22;11484;50.858;4.384;2024-03-08T00:34:38;5.70;99.90
22635;DHT22;11484;50.858;4.384;2024-03-08T00:37:04;5.70;99.90
22635;DHT22;11484;50.858;4.384;2024-03-08T00:39:30;5.70;99.90
22635;DHT22;11484;50.858;4.384;2024-03-08T00:41:56;5.60;99.90
22635;DHT22;11484;50.858;4.384;2024-03-08T00:44:22;5.60;99.90
22635;DHT22;11484;50.858;4.384;2024-03-08T00:46:47;5.60;99.90
22635;DHT22;11484;50.858;4.384;2024-03-08T00:49:13;5.60;99.90
22635;DHT22;11484;50.858;4.384;2024-03-08T00:51:39;5.60;99.90
22635;DHT22;11484;50.858;4.384;2024-03-08T00:54:04;5.60;99.90
22635;DHT22;11484;50.858;4.384;2024-03-08T00:56:30;5.60;99.90
22635;DHT22;11484;50.858;4.384;2024-03-08T00:58:56;5.70;99.90
22635;DHT22;11484;50.858;4.384;2024-03-08T01:01:22;5.70;99.90
22635;DHT22;11484;50.858;4.384;2024-03-08T01:03:47;5.80;99.90
22635;DHT22;11484;50.858;4.384;2024-03-08T01:06:14;5.80;99.90
22635;DHT22;11484;50.858;4.384;2024-03-08T01:08:40;5.80;99.90
22635;DHT22;11484;50.858;4.384;2024-03-08T01:11:08;5.80;99.90
22635;DHT22;11484;50.858;4.384;2024-03-08T01:13:34;5.90;99.90
22635;DHT22;11484;50.858;4.384;2024-03-08T01:16:00;5.90;99.90
22635;DHT22;11484;50.858;4.384;2024-03-08T01:18:25;5.90;99.90
22635;DHT22;11484;50.858;4.384;2024-03-08T01:20:51;5.90;99.90
22635;DHT22;11484;50.858;4.384;2024-03-08T01:23:17;5.90;99.90
22635;DHT22;11484;50.858;4.384;2024-03-08T01:25:42;5.90;99.90
22635;DHT22;11484;50.858;4.384;2024-03-08T01:28:09;6.00;99.90
22635;DHT22;11484;50.858;4.384;2024-03-08T01:30:35;6.00;99.90
22635;DHT22;11484;50.858;4.384;2024-03-08T01:33:02;5.90;99.90
22635;DHT22;11484;50.858;4.384;2024-03-08T01:35:28;5.90;99.90
22635;DHT22;11484;50.858;4.384;2024-03-08T01:37:54;5.90;99.90
22635;DHT22;11484;50.858;4.384;2024-03-08T01:40:20;5.90;99.90
22635;DHT22;11484;50.858;4.384;2024-03-08T01:42:46;5.80;99.90
22635;DHT22;11484;50.858;4.384;2024-03-08T01:45:13;5.90;99.90
22635;DHT22;11484;50.858;4.384;2024-03-08T01:47:39;5.80;99.90
22635;DHT22;11484;50.858;4.384;2024-03-08T01:50:05;5.70;99.90
22635;DHT22;11484;50.858;4.384;2024-03-08T01:52:35;5.70;99.90
22635;DHT22;11484;50.858;4.384;2024-03-08T01:55:02;5.70;99.90
22635;DHT22;11484;50.858;4.384;2024-03-08T01:57:31;5.70;99.90
22635;DHT22;11484;50.858;4.384;2024-03-08T02:00:00;5.60;99.90
22635;DHT22;11484;50.858;4.384;2024-03-08T02:02:32;5.60;99.90
22635;DHT22;11484;50.858;4.384;2024-03-08T02:05:00;5.60;99.90
22635;DHT22;11484;50.858;4.384;2024-03-08T02:07:26;5.50;99.90
22635;DHT22;11484;50.858;4.384;2024-03-08T02:09:52;5.50;99.90
22635;DHT22;11484;50.858;4.384;2024-03-08T02:12:18;5.60;99.90
22635;DHT22;11484;50.858;4.384;2024-03-08T02:14:46;5.50;99.90
22635;DHT22;11484;50.858;4.384;2024-03-08T02:17:12;5.50;99.90
22635;DHT22;11484;50.858;4.384;2024-03-08T02:19:38;5.50;99.90
22635;DHT22;11484;50.858;4.384;2024-03-08T02:22:05;5.50;99.90
22635;DHT22;11484;50.858;4.384;2024-03-08T02:24:31;5.50;99.90
22635;DHT22;11484;50.858;4.384;2024-03-08T02:26:57;5.50;99.90
22635;DHT22;11484;50.858;4.384;2024-03-08T02:29:23;5.50;99.90
22635;DHT22;11484;50.858;4.384;2024-03-08T02:31:51;5.40;99.90
22635;DHT22;11484;50.858;4.384;2024-03-08T02:34:17;5.40;99.90
22635;DHT22;11484;50.858;4.384;2024-03-08T02:36:42;5.40;99.90
22635;DHT22;11484;50.858;4.384;2024-03-08T02:39:08;5.40;99.90
22635;DHT22;11484;50.858;4.384;2024-03-08T02:41:36;5.40;99.90
22635;DHT22;11484;50.858;4.384;2024-03-08T02:44:02;5.40;99.90
22635;DHT22;11484;50.858;4.384;2024-03-08T02:46:27;5.50;99.90
22635;DHT22;11484;50.858;4.384;2024-03-08T02:48:53;5.40;99.90
22635;DHT22;11484;50.858;4.384;2024-03-08T02:51:19;5.50;99.90
22635;DHT22;11484;50.858;4.384;2024-03-08T02:53:45;5.60;99.90
22635;DHT22;11484;50.858;4.384;2024-03-08T02:56:14;5.60;99.90
22635;DHT22;11484;50.858;4.384;2024-03-08T02:58:42;5.70;99.90
22635;DHT22;11484;50.858;4.384;2024-03-08T03:01:08;5.80;99.90
22635;DHT22;11484;50.858;4.384;2024-03-08T03:03:35;5.80;99.90
22635;DHT22;11484;50.858;4.384;2024-03-08T03:06:02;5.70;99.90
22635;DHT22;11484;50.858;4.384;2024-03-08T03:08:27;5.70;99.90
22635;DHT22;11484;50.858;4.384;2024-03-08T03:10:53;5.80;99.90
22635;DHT22;11484;50.858;4.384;2024-03-08T03:13:22;5.80;99.90
22635;DHT22;11484;50.858;4.384;2024-03-08T03:15:47;5.80;99.90
22635;DHT22;11484;50.858;4.384;2024-03-08T03:18:13;5.70;99.90
22635;DHT22;11484;50.858;4.384;2024-03-08T03:20:39;5.70;99.90
22635;DHT22;11484;50.858;4.384;2024-03-08T03:23:09;5.60;99.90
22635;DHT22;11484;50.858;4.384;2024-03-08T03:25:35;5.60;99.90
22635;DHT22;11484;50.858;4.384;2024-03-08T03:28:04;5.50;99.90
22635;DHT22;11484;50.858;4.384;2024-03-08T03:30:30;5.50;99.90
22635;DHT22;11484;50.858;4.384;2024-03-08T03:33:02;5.50;99.90
22635;DHT22;11484;50.858;4.384;2024-03-08T03:35:32;5.50;99.90
22635;DHT22;11484;50.858;4.384;2024-03-08T03:37:58;5.60;99.90
22635;DHT22;11484;50.858;4.384;2024-03-08T03:40:31;5.50;99.90
22635;DHT22;11484;50.858;4.384;2024-03-08T03:42:57;5.60;99.90
22635;DHT22;11484;50.858;4.384;2024-03-08T03:45:24;5.60;99.90
22635;DHT22;11484;50.858;4.384;2024-03-08T03:47:49;5.60;99.90
22635;DHT22;11484;50.858;4.384;2024-03-08T03:50:16;5.50;99.90
22635;DHT22;11484;50.858;4.384;2024-03-08T03:52:41;5.50;99.90
22635;DHT22;11484;50.858;4.384;2024-03-08T03:55:08;5.40;99.90
22635;DHT22;11484;50.858;4.384;2024-03-08T03:57:33;5.20;99.90
22635;DHT22;11484;50.858;4.384;2024-03-08T03:59:59;5.10;99.90
22635;DHT22;11484;50.858;4.384;2024-03-08T04:02:25;4.90;99.90
22635;DHT22;11484;50.858;4.384;2024-03-08T04:04:52;4.90;99.90
22635;DHT22;11484;50.858;4.384;2024-03-08T04:07:20;5.00;99.90
22635;DHT22;11484;50.858;4.384;2024-03-08T04:09:46;5.00;99.90
22635;DHT22;11484;50.858;4.384;2024-03-08T04:12:12;5.10;99.90
22635;DHT22;11484;50.858;4.384;2024-03-08T04:14:40;5.20;99.90
22635;DHT22;11484;50.858;4.384;2024-03-08T04:17:06;5.00;99.90
22635;DHT22;11484;50.858;4.384;2024-03-08T04:19:34;5.00;99.90
22635;DHT22;11484;50.858;4.384;2024-03-08T04:22:00;4.90;99.90
22635;DHT22;11484;50.858;4.384;2024-03-08T04:24:26;4.80;99.90
22635;DHT22;11484;50.858;4.384;2024-03-08T04:26:52;4.90;99.90
22635;DHT22;11484;50.858;4.384;2024-03-08T04:29:18;5.00;99.90
22635;DHT22;11484;50.858;4.384;2024-03-08T04:31:44;5.10;99.90
22635;DHT22;11484;50.858;4.384;2024-03-08T04:34:10;5.10;99.90
22635;DHT22;11484;50.858;4.384;2024-03-08T04:36:36;5.00;99.90
22635;DHT22;11484;50.858;4.384;2024-03-08T04:39:02;5.00;99.90
22635;DHT22;11484;50.858;4.384;2024-03-08T04:41:28;4.90;99.90
22635;DHT22;11484;50.858;4.384;2024-03-08T04:43:56;4.90;99.90
22635;DHT22;11484;50.858;4.384;2024-03-08T04:46:23;4.90;99.90
22635;DHT22;11484;50.858;4.384;2024-03-08T04:48:49;4.90;99.90
22635;DHT22;11484;50.858;4.384;2024-03-08T04:51:15;4.80;99.90
22635;DHT22;11484;50.858;4.384;2024-03-08T04:53:41;4.80;99.90
22635;DHT22;11484;50.858;4.384;2024-03-08T04:56:07;4.80;99.90
22635;DHT22;11484;50.858;4.384;2024-03-08T04:58:35;4.80;99.90
22635;DHT22;11484;50.858;4.384;2024-03-08T05:01:02;4.90;99.90
22635;DHT22;11484;50.858;4.384;2024-03-08T05:03:27;4.90;99.90
22635;DHT22;11484;50.858;4.384;2024-03-08T05:05:54;4.90;99.90
22635;DHT22;11484;50.858;4.384;2024-03-08T05:08:19;4.90;99.90
22635;DHT22;11484;50.858;4.384;2024-03-08T05:10:45;4.80;99.90
22635;DHT22;11484;50.858;4.384;2024-03-08T05:13:12;4.70;99.90
22635;DHT22;11484;50.858;4.384;2024-03-08T05:15:38;4.60;99.90
22635;DHT22;11484;50.858;4.384;2024-03-08T05:18:05;4.60;99.90
22635;DHT22;11484;50.858;4.384;2024-03-08T05:20:30;4.70;99.90
22635;DHT22;11484;50.858;4.384;2024-03-08T05:22:56;4.60;99.90
22635;DHT22;11484;50.858;4.384;2024-03-08T05:25:26;4.70;99.90
22635;DHT22;11484;50.858;4.384;2024-03-08T05:27:52;4.70;99.90
22635;DHT22;11484;50.858;4.384;2024-03-08T05:30:18;4.70;99.90
22635;DHT22;11484;50.858;4.384;2024-03-08T05:32:43;4.80;99.90
22635;DHT22;11484;50.858;4.384;2024-03-08T05:35:12;4.80;99.90
22635;DHT22;11484;50.858;4.384;2024-03-08T05:37:38;4.70;99.90
22635;DHT22;11484;50.858;4.384;2024-03-08T05:40:05;4.70;99.90
22635;DHT22;11484;50.858;4.384;2024-03-08T05:42:35;4.60;99.90
22635;DHT22;11484;50.858;4.384;2024-03-08T05:45:02;4.70;99.90
22635;DHT22;11484;50.858;4.384;2024-03-08T05:47:28;4.60;99.90
22635;DHT22;11484;50.858;4.384;2024-03-08T05:49:54;4.60;99.90
22635;DHT22;11484;50.858;4.384;2024-03-08T05:52:20;4.50;99.90
22635;DHT22;11484;50.858;4.384;2024-03-08T05:54:46;4.60;99.90
22635;DHT22;11484;50.858;4.384;2024-03-08T05:57:12;4.60;99.90
22635;DHT22;11484;50.858;4.384;2024-03-08T05:59:39;4.70;99.90
22635;DHT22;11484;50.858;4.384;2024-03-08T06:02:05;4.70;99.90
22635;DHT22;11484;50.858;4.384;2024-03-08T06:04:31;4.70;99.90
22635;DHT22;11484;50.858;4.384;2024-03-08T06:06:57;4.70;99.90
22635;DHT22;11484;50.858;4.384;2024-03-08T06:09:24;4.60;99.90
22635;DHT22;11484;50.858;4.384;2024-03-08T06:11:50;4.40;99.90
22635;DHT22;11484;50.858;4.384;2024-03-08T06:14:16;4.40;99.90
22635;DHT22;11484;50.858;4.384;2024-03-08T06:16:47;4.30;99.90
22635;DHT22;11484;50.858;4.384;2024-03-08T06:19:15;4.30;99.90
22635;DHT22;11484;50.858;4.384;2024-03-08T06:21:41;4.40;99.90
22635;DHT22;11484;50.858;4.384;2024-03-08T06:24:07;4.40;99.90
22635;DHT22;11484;50.858;4.384;2024-03-08T06:26:33;4.30;99.90
22635;DHT22;11484;50.858;4.384;2024-03-08T06:28:59;4.30;99.90
22635;DHT22;11484;50.858;4.384;2024-03-08T06:31:25;4.30;99.90
22635;DHT22;11484;50.858;4.384;2024-03-08T06:33:51;4.30;99.90
22635;DHT22;11484;50.858;4.384;2024-03-08T06:36:17;4.40;99.90
22635;DHT22;11484;50.858;4.384;2024-03-08T06:38:47;4.40;99.90
22635;DHT22;11484;50.858;4.384;2024-03-08T06:41:13;4.40;99.90
22635;DHT22;11484;50.858;4.384;2024-03-08T06:43:45;4.40;99.90
22635;DHT22;11484;50.858;4.384;2024-03-08T06:46:12;4.40;99.90
22635;DHT22;11484;50.858;4.384;2024-03-08T06:48:38;4.50;99.90
22635;DHT22;11484;50.858;4.384;2024-03-08T06:51:04;4.40;99.90
22635;DHT22;11484;50.858;4.384;2024-03-08T06:53:30;4.40;99.90
22635;DHT22;11484;50.858;4.384;2024-03-08T06:55:57;4.50;99.90
22635;DHT22;11484;50.858;4.384;2024-03-08T06:58:23;4.70;99.90
22635;DHT22;11484;50.858;4.384;2024-03-08T07:00:49;4.80;99.90
22635;DHT22;11484;50.858;4.384;2024-03-08T07:03:17;4.90;99.90
22635;DHT22;11484;50.858;4.384;2024-03-08T07:05:43;4.90;99.90
22635;DHT22;11484;50.858;4.384;2024-03-08T07:08:09;4.90;99.90
22635;DHT22;11484;50.858;4.384;2024-03-08T07:10:36;4.90;99.90
22635;DHT22;11484;50.858;4.384;2024-03-08T07:13:03;4.80;99.90
22635;DHT22;11484;50.858;4.384;2024-03-08T07:15:28;4.80;99.90
22635;DHT22;11484;50.858;4.384;2024-03-08T07:17:55;4.90;99.90
22635;DHT22;11484;50.858;4.384;2024-03-08T07:20:21;5.10;99.90
22635;DHT22;11484;50.858;4.384;2024-03-08T07:22:47;5.50;99.90
22635;DHT22;11484;50.858;4.384;2024-03-08T07:25:14;5.90;99.90
22635;DHT22;11484;50.858;4.384;2024-03-08T07:27:55;6.50;99.90
22635;DHT22;11484;50.858;4.384;2024-03-08T07:30:23;7.30;99.90
22635;DHT22;11484;50.858;4.384;2024-03-08T07:33:07;7.90;99.90
22635;DHT22;11484;50.858;4.384;2024-03-08T07:35:33;8.60;99.90
22635;DHT22;11484;50.858;4.384;2024-03-08T07:38:09;8.70;99.90
22635;DHT22;11484;50.858;4.384;2024-03-08T07:40:41;8.70;99.90
22635;DHT22;11484;50.858;4.384;2024-03-08T07:43:12;8.40;99.90
22635;DHT22;11484;50.858;4.384;2024-03-08T07:45:39;8.20;99.90
22635;DHT22;11484;50.858;4.384;2024-03-08T07:48:05;8.00;99.90
22635;DHT22;11484;50.858;4.384;2024-03-08T07:50:39;8.00;99.90
22635;DHT22;11484;50.858;4.384;2024-03-08T07:53:05;8.10;99.90
22635;DHT22;11484;50.858;4.384;2024-03-08T07:55:34;8.20;99.90
22635;DHT22;11484;50.858;4.384;2024-03-08T07:58:00;8.60;99.90
22635;DHT22;11484;50.858;4.384;2024-03-08T08:00:26;8.80;99.90
22635;DHT22;11484;50.858;4.384;2024-03-08T08:02:53;8.70;99.90
22635;DHT22;11484;50.858;4.384;2024-03-08T08:05:19;8.60;99.90
22635;DHT22;11484;50.858;4.384;2024-03-08T08:07:45;8.60;99.90
22635;DHT22;11484;50.858;4.384;2024-03-08T08:10:15;8.70;99.90
22635;DHT22;11484;50.858;4.384;2024-03-08T08:12:50;8.80;99.90
22635;DHT22;11484;50.858;4.384;2024-03-08T08:15:20;8.90;99.90
22635;DHT22;11484;50.858;4.384;2024-03-08T08:17:46;8.80;99.90
22635;DHT22;11484;50.858;4.384;2024-03-08T08:20:12;8.80;99.90
22635;DHT22;11484;50.858;4.384;2024-03-08T08:22:39;9.10;99.90
22635;DHT22;11484;50.858;4.384;2024-03-08T08:25:09;9.40;99.90
22635;DHT22;11484;50.858;4.384;2024-03-08T08:27:38;9.30;99.90
22635;DHT22;11484;50.858;4.384;2024-03-08T08:30:05;9.30;99.90
22635;DHT22;11484;50.858;4.384;2024-03-08T08:32:35;9.60;99.90
22635;DHT22;11484;50.858;4.384;2024-03-08T08:35:10;10.00;99.90
22635;DHT22;11484;50.858;4.384;2024-03-08T08:37:40;10.50;99.90
22635;DHT22;11484;50.858;4.384;2024-03-08T08:40:07;10.80;99.90
22635;DHT22;11484;50.858;4.384;2024-03-08T08:42:40;11.30;99.90
22635;DHT22;11484;50.858;4.384;2024-03-08T08:45:06;11.70;99.90
22635;DHT22;11484;50.858;4.384;2024-03-08T08:47:38;11.60;99.30
22635;DHT22;11484;50.858;4.384;2024-03-08T08:50:04;11.50;99.70
22635;DHT22;11484;50.858;4.384;2024-03-08T08:52:31;11.30;99.80
22635;DHT22;11484;50.858;4.384;2024-03-08T08:54:57;11.60;98.90
22635;DHT22;11484;50.858;4.384;2024-03-08T08:57:23;11.90;98.40
22635;DHT22;11484;50.858;4.384;2024-03-08T08:59:49;11.60;98.20
22635;DHT22;11484;50.858;4.384;2024-03-08T09:02:15;11.40;98.50
22635;DHT22;11484;50.858;4.384;2024-03-08T09:04:42;11.30;99.10
22635;DHT22;11484;50.858;4.384;2024-03-08T09:07:09;11.30;98.90
22635;DHT22;11484;50.858;4.384;2024-03-08T09:09:34;11.30;98.40
22635;DHT22;11484;50.858;4.384;2024-03-08T09:12:01;11.40;98.70
22635;DHT22;11484;50.858;4.384;2024-03-08T09:14:27;11.60;97.70
22635;DHT22;11484;50.858;4.384;2024-03-08T09:16:53;12.00;97.40
22635;DHT22;11484;50.858;4.384;2024-03-08T09:19:18;12.30;97.10
22635;DHT22;11484;50.858;4.384;2024-03-08T09:21:45;12.40;96.60
22635;DHT22;11484;50.858;4.384;2024-03-08T09:24:11;12.90;95.40
22635;DHT22;11484;50.858;4.384;2024-03-08T09:26:37;12.80;95.50
22635;DHT22;11484;50.858;4.384;2024-03-08T09:29:06;12.90;94.70
22635;DHT22;11484;50.858;4.384;2024-03-08T09:31:32;13.30;94.20
22635;DHT22;11484;50.858;4.384;2024-03-08T09:33:58;13.00;93.90
22635;DHT22;11484;50.858;4.384;2024-03-08T09:36:24;13.40;93.90
22635;DHT22;11484;50.858;4.384;2024-03-08T09:38:50;13.80;93.00
22635;DHT22;11484;50.858;4.384;2024-03-08T09:41:16;13.60;92.70
22635;DHT22;11484;50.858;4.384;2024-03-08T09:43:43;13.60;92.10
22635;DHT22;11484;50.858;4.384;2024-03-08T09:46:15;13.70;92.10
22635;DHT22;11484;50.858;4.384;2024-03-08T09:48:42;13.70;91.90
22635;DHT22;11484;50.858;4.384;2024-03-08T09:51:08;13.50;92.20
22635;DHT22;11484;50.858;4.384;2024-03-08T09:53:38;13.50;92.00
22635;DHT22;11484;50.858;4.384;2024-03-08T09:56:04;14.00;91.60
22635;DHT22;11484;50.858;4.384;2024-03-08T09:58:30;13.80;91.10
22635;DHT22;11484;50.858;4.384;2024-03-08T10:00:58;13.70;91.30
22635;DHT22;11484;50.858;4.384;2024-03-08T10:03:27;13.60;91.80
22635;DHT22;11484;50.858;4.384;2024-03-08T10:05:53;13.60;91.30
22635;DHT22;11484;50.858;4.384;2024-03-08T10:08:28;14.00;91.40
22635;DHT22;11484;50.858;4.384;2024-03-08T10:10:57;13.80;90.60
22635;DHT22;11484;50.858;4.384;2024-03-08T10:13:26;13.80;90.80
22635;DHT22;11484;50.858;4.384;2024-03-08T10:15:55;13.80;91.00
22635;DHT22;11484;50.858;4.384;2024-03-08T10:18:21;14.20;90.50
22635;DHT22;11484;50.858;4.384;2024-03-08T10:21:05;14.40;89.30
22635;DHT22;11484;50.858;4.384;2024-03-08T10:23:33;13.70;90.60
22635;DHT22;11484;50.858;4.384;2024-03-08T10:26:12;13.10;91.40
22635;DHT22;11484;50.858;4.384;2024-03-08T10:28:49;12.80;91.60
22635;DHT22;11484;50.858;4.384;2024-03-08T10:31:19;12.20;92.40
22635;DHT22;11484;50.858;4.384;2024-03-08T10:33:46;11.70;93.10
22635;DHT22;11484;50.858;4.384;2024-03-08T10:36:14;11.30;93.90
22635;DHT22;11484;50.858;4.384;2024-03-08T10:38:41;11.00;94.80
22635;DHT22;11484;50.858;4.384;2024-03-08T10:41:08;10.90;95.40
22635;DHT22;11484;50.858;4.384;2024-03-08T10:49:16;11.00;95.80
22635;DHT22;11484;50.858;4.384;2024-03-08T10:51:46;10.90;95.90
22635;DHT22;11484;50.858;4.384;2024-03-08T10:54:19;10.70;96.10
22635;DHT22;11484;50.858;4.384;2024-03-08T10:56:47;10.50;96.40
22635;DHT22;11484;50.858;4.384;2024-03-08T10:59:14;10.50;96.70
22635;DHT22;11484;50.858;4.384;2024-03-08T11:01:40;10.40;97.00
22635;DHT22;11484;50.858;4.384;2024-03-08T11:04:06;10.40;97.20
22635;DHT22;11484;50.858;4.384;2024-03-08T11:09:10;10.30;97.60
22635;DHT22;11484;50.858;4.384;2024-03-08T11:11:42;10.40;97.80
22635;DHT22;11484;50.858;4.384;2024-03-08T11:14:42;10.40;97.80
22635;DHT22;11484;50.858;4.384;2024-03-08T11:17:08;10.40;97.80
22635;DHT22;11484;50.858;4.384;2024-03-08T11:19:33;10.50;98.20
22635;DHT22;11484;50.858;4.384;2024-03-08T11:22:01;10.60;98.30
22635;DHT22;11484;50.858;4.384;2024-03-08T11:24:27;10.60;98.40
22635;DHT22;11484;50.858;4.384;2024-03-08T11:26:58;10.50;97.90
22635;DHT22;11484;50.858;4.384;2024-03-08T11:32:15;10.60;98.00
22635;DHT22;11484;50.858;4.384;2024-03-08T11:34:45;10.60;98.30
22635;DHT22;11484;50.858;4.384;2024-03-08T11:37:16;10.50;98.20
22635;DHT22;11484;50.858;4.384;2024-03-08T11:39:54;10.60;98.40
22635;DHT22;11484;50.858;4.384;2024-03-08T11:42:27;10.60;98.30
22635;DHT22;11484;50.858;4.384;2024-03-08T11:44:53;10.60;98.40
22635;DHT22;11484;50.858;4.384;2024-03-08T11:47:20;10.60;98.50
22635;DHT22;11484;50.858;4.384;2024-03-08T11:49:46;10.60;98.90
22635;DHT22;11484;50.858;4.384;2024-03-08T11:52:17;10.70;98.70
22635;DHT22;11484;50.858;4.384;2024-03-08T11:54:49;10.70;98.80
22635;DHT22;11484;50.858;4.384;2024-03-08T11:57:23;10.80;98.70
22635;DHT22;11484;50.858;4.384;2024-03-08T11:59:52;10.80;98.70
22635;DHT22;11484;50.858;4.384;2024-03-08T12:02:18;10.70;98.90
22635;DHT22;11484;50.858;4.384;2024-03-08T12:04:45;10.60;99.00
22635;DHT22;11484;50.858;4.384;2024-03-08T12:07:11;10.70;99.00
22635;DHT22;11484;50.858;4.384;2024-03-08T12:09:40;10.90;99.20
22635;DHT22;11484;50.858;4.384;2024-03-08T12:12:07;11.00;99.00
22635;DHT22;11484;50.858;4.384;2024-03-08T12:14:33;11.10;98.80
22635;DHT22;11484;50.858;4.384;2024-03-08T12:16:59;11.10;98.10
22635;DHT22;11484;50.858;4.384;2024-03-08T12:19:27;11.00;98.30
22635;DHT22;11484;50.858;4.384;2024-03-08T12:21:54;10.90;99.00
22635;DHT22;11484;50.858;4.384;2024-03-08T12:24:20;10.90;99.00
22635;DHT22;11484;50.858;4.384;2024-03-08T12:26:47;11.00;99.10
22635;DHT22;11484;50.858;4.384;2024-03-08T12:29:24;11.00;98.60
22635;DHT22;11484;50.858;4.384;2024-03-08T12:31:59;11.10;98.40
22635;DHT22;11484;50.858;4.384;2024-03-08T12:34:30;11.10;98.50
22635;DHT22;11484;50.858;4.384;2024-03-08T12:36:58;11.20;98.40
22635;DHT22;11484;50.858;4.384;2024-03-08T12:39:24;11.20;98.60
22635;DHT22;11484;50.858;4.384;2024-03-08T12:41:56;11.20;98.70
22635;DHT22;11484;50.858;4.384;2024-03-08T12:44:31;11.20;98.60
22635;DHT22;11484;50.858;4.384;2024-03-08T12:46:57;11.20;98.30
22635;DHT22;11484;50.858;4.384;2024-03-08T12:49:24;11.20;99.00
22635;DHT22;11484;50.858;4.384;2024-03-08T12:51:50;11.10;98.40
22635;DHT22;11484;50.858;4.384;2024-03-08T12:54:17;11.20;98.50
22635;DHT22;11484;50.858;4.384;2024-03-08T12:56:43;11.20;98.40
22635;DHT22;11484;50.858;4.384;2024-03-08T12:59:09;11.20;98.40
22635;DHT22;11484;50.858;4.384;2024-03-08T13:01:36;11.30;98.60
22635;DHT22;11484;50.858;4.384;2024-03-08T13:04:05;11.40;98.20
22635;DHT22;11484;50.858;4.384;2024-03-08T13:06:32;11.50;98.00
22635;DHT22;11484;50.858;4.384;2024-03-08T13:08:58;11.50;98.00
22635;DHT22;11484;50.858;4.384;2024-03-08T13:11:26;11.60;98.40
22635;DHT22;11484;50.858;4.384;2024-03-08T13:13:52;11.60;98.40
22635;DHT22;11484;50.858;4.384;2024-03-08T13:16:19;11.60;98.50
22635;DHT22;11484;50.858;4.384;2024-03-08T13:18:45;11.70;98.30
22635;DHT22;11484;50.858;4.384;2024-03-08T13:21:14;11.70;98.40
22635;DHT22;11484;50.858;4.384;2024-03-08T13:23:41;11.70;98.20
22635;DHT22;11484;50.858;4.384;2024-03-08T13:26:12;11.70;98.10
22635;DHT22;11484;50.858;4.384;2024-03-08T13:28:41;11.60;98.00
22635;DHT22;11484;50.858;4.384;2024-03-08T13:31:07;11.80;98.10
22635;DHT22;11484;50.858;4.384;2024-03-08T13:33:35;11.90;98.10
22635;DHT22;11484;50.858;4.384;2024-03-08T13:36:03;11.90;97.90
22635;DHT22;11484;50.858;4.384;2024-03-08T13:38:29;12.00;97.80
22635;DHT22;11484;50.858;4.384;2024-03-08T13:40:58;12.10;97.60
22635;DHT22;11484;50.858;4.384;2024-03-08T13:43:24;12.10;97.70
22635;DHT22;11484;50.858;4.384;2024-03-08T13:45:50;12.20;97.60
22635;DHT22;11484;50.858;4.384;2024-03-08T13:48:15;12.20;97.30
22635;DHT22;11484;50.858;4.384;2024-03-08T13:50:41;12.20;97.50
22635;DHT22;11484;50.858;4.384;2024-03-08T13:53:07;12.20;97.00
22635;DHT22;11484;50.858;4.384;2024-03-08T13:55:35;12.30;97.10
22635;DHT22;11484;50.858;4.384;2024-03-08T13:58:01;12.20;97.10
22635;DHT22;11484;50.858;4.384;2024-03-08T14:00:28;12.30;97.40
22635;DHT22;11484;50.858;4.384;2024-03-08T14:02:59;12.20;97.10
22635;DHT22;11484;50.858;4.384;2024-03-08T14:05:25;12.20;97.20
22635;DHT22;11484;50.858;4.384;2024-03-08T14:07:50;12.20;97.20
22635;DHT22;11484;50.858;4.384;2024-03-08T14:10:19;12.30;96.90
22635;DHT22;11484;50.858;4.384;2024-03-08T14:12:48;12.20;97.20
22635;DHT22;11484;50.858;4.384;2024-03-08T14:15:16;12.30;97.30
22635;DHT22;11484;50.858;4.384;2024-03-08T14:17:42;12.30;96.90
22635;DHT22;11484;50.858;4.384;2024-03-08T14:20:08;12.40;96.90
22635;DHT22;11484;50.858;4.384;2024-03-08T14:22:35;12.40;96.90
22635;DHT22;11484;50.858;4.384;2024-03-08T14:25:00;12.50;96.60
22635;DHT22;11484;50.858;4.384;2024-03-08T14:27:26;12.50;96.60
22635;DHT22;11484;50.858;4.384;2024-03-08T14:29:52;12.50;96.80
22635;DHT22;11484;50.858;4.384;2024-03-08T14:32:20;12.40;97.00
22635;DHT22;11484;50.858;4.384;2024-03-08T14:34:48;12.50;96.80
22635;DHT22;11484;50.858;4.384;2024-03-08T14:37:14;12.50;96.70
22635;DHT22;11484;50.858;4.384;2024-03-08T14:39:41;12.60;96.90
22635;DHT22;11484;50.858;4.384;2024-03-08T14:42:06;12.60;97.00
22635;DHT22;11484;50.858;4.384;2024-03-08T14:44:34;12.70;96.90
22635;DHT22;11484;50.858;4.384;2024-03-08T14:47:00;12.60;96.80
22635;DHT22;11484;50.858;4.384;2024-03-08T14:49:26;12.60;96.40
22635;DHT22;11484;50.858;4.384;2024-03-08T14:51:54;12.60;97.00
22635;DHT22;11484;50.858;4.384;2024-03-08T14:54:20;12.80;96.20
22635;DHT22;11484;50.858;4.384;2024-03-08T14:56:48;12.80;96.00
22635;DHT22;11484;50.858;4.384;2024-03-08T14:59:16;12.90;95.80
22635;DHT22;11484;50.858;4.384;2024-03-08T15:01:42;12.80;95.90
22635;DHT22;11484;50.858;4.384;2024-03-08T15:04:09;12.80;95.90
22635;DHT22;11484;50.858;4.384;2024-03-08T15:06:40;12.80;96.10
22635;DHT22;11484;50.858;4.384;2024-03-08T15:09:06;12.70;95.80
22635;DHT22;11484;50.858;4.384;2024-03-08T15:11:45;12.80;96.10
22635;DHT22;11484;50.858;4.384;2024-03-08T15:14:11;12.70;96.20
22635;DHT22;11484;50.858;4.384;2024-03-08T15:16:39;12.70;96.30
22635;DHT22;11484;50.858;4.384;2024-03-08T15:19:07;12.60;96.30
22635;DHT22;11484;50.858;4.384;2024-03-08T15:21:33;12.70;96.40
22635;DHT22;11484;50.858;4.384;2024-03-08T15:24:00;12.80;96.20
22635;DHT22;11484;50.858;4.384;2024-03-08T15:26:30;12.80;96.50
22635;DHT22;11484;50.858;4.384;2024-03-08T15:28:57;12.80;96.10
22635;DHT22;11484;50.858;4.384;2024-03-08T15:31:23;12.90;96.10
22635;DHT22;11484;50.858;4.384;2024-03-08T15:33:52;12.80;96.00
22635;DHT22;11484;50.858;4.384;2024-03-08T15:36:26;12.80;96.20
22635;DHT22;11484;50.858;4.384;2024-03-08T15:38:54;12.70;96.20
22635;DHT22;11484;50.858;4.384;2024-03-08T15:41:20;12.80;96.30
22635;DHT22;11484;50.858;4.384;2024-03-08T15:43:46;12.80;96.30
22635;DHT22;11484;50.858;4.384;2024-03-08T15:46:13;12.90;96.40
22635;DHT22;11484;50.858;4.384;2024-03-08T15:48:39;12.90;96.40
22635;DHT22;11484;50.858;4.384;2024-03-08T15:51:08;12.80;96.60